sensor_id;sensor_type;location;lat;lon;timestamp;P1;durP1;ratioP1;P2;durP2;ratioP2
15841;SDS011;8021;48.022;11.812;2022-10-15T00:01:55;0.30;;;0.30;;
15841;SDS011;8021;48.022;11.812;2022-10-15T00:04:22;0.30;;;0.30;;
15841;SDS011;8021;48.022;11.812;2022-10-15T00:06:49;0.30;;;0.20;;
15841;SDS011;8021;48.022;11.812;2022-10-15T00:09:17;0.30;;;0.30;;
15841;SDS011;8021;48.022;11.812;2022-10-15T00:11:44;0.30;;;0.30;;
15841;SDS011;8021;48.022;11.812;2022-10-15T00:14:12;0.30;;;0.30;;
15841;SDS011;8021;48.022;11.812;2022-10-15T00:16:39;0.30;;;0.30;;
15841;SDS011;8021;48.022;11.812;2022-10-15T00:19:08;0.30;;;0.30;;
15841;SDS011;8021;48.022;11.812;2022-10-15T00:21:36;0.30;;;0.30;;
15841;SDS011;8021;48.022;11.812;2022-10-15T00:24:03;0.30;;;0.30;;
15841;SDS011;8021;48.022;11.812;2022-10-15T00:26:31;0.40;;;0.40;;
15841;SDS011;8021;48.022;11.812;2022-10-15T00:29:00;0.30;;;0.30;;
15841;SDS011;8021;48.022;11.812;2022-10-15T00:31:28;0.30;;;0.30;;
15841;SDS011;8021;48.022;11.812;2022-10-15T00:33:56;0.30;;;0.30;;
15841;SDS011;8021;48.022;11.812;2022-10-15T00:36:26;0.30;;;0.30;;
15841;SDS011;8021;48.022;11.812;2022-10-15T00:38:54;0.30;;;0.30;;
15841;SDS011;8021;48.022;11.812;2022-10-15T00:41:22;0.30;;;0.30;;
15841;SDS011;8021;48.022;11.812;2022-10-15T00:43:51;0.30;;;0.30;;
15841;SDS011;8021;48.022;11.812;2022-10-15T00:46:22;0.30;;;0.30;;
15841;SDS011;8021;48.022;11.812;2022-10-15T00:48:50;0.30;;;0.30;;
15841;SDS011;8021;48.022;11.812;2022-10-15T00:51:19;0.30;;;0.30;;
15841;SDS011;8021;48.022;11.812;2022-10-15T00:53:48;0.30;;;0.30;;
15841;SDS011;8021;48.022;11.812;2022-10-15T00:56:16;0.30;;;0.20;;
15841;SDS011;8021;48.022;11.812;2022-10-15T00:58:45;0.30;;;0.30;;
15841;SDS011;8021;48.022;11.812;2022-10-15T01:01:13;0.30;;;0.30;;
15841;SDS011;8021;48.022;11.812;2022-10-15T01:03:40;0.30;;;0.30;;
15841;SDS011;8021;48.022;11.812;2022-10-15T01:06:09;0.30;;;0.30;;
15841;SDS011;8021;48.022;11.812;2022-10-15T01:08:39;0.30;;;0.30;;
15841;SDS011;8021;48.022;11.812;2022-10-15T01:11:12;0.30;;;0.30;;
15841;SDS011;8021;48.022;11.812;2022-10-15T01:13:45;0.30;;;0.30;;
15841;SDS011;8021;48.022;11.812;2022-10-15T01:16:15;0.32;;;0.32;;
15841;SDS011;8021;48.022;11.812;2022-10-15T01:18:46;0.32;;;0.32;;
15841;SDS011;8021;48.022;11.812;2022-10-15T01:21:17;0.30;;;0.30;;
15841;SDS011;8021;48.022;11.812;2022-10-15T01:24:01;0.30;;;0.30;;
15841;SDS011;8021;48.022;11.812;2022-10-15T01:26:51;0.30;;;0.30;;
15841;SDS011;8021;48.022;11.812;2022-10-15T01:29:23;0.40;;;0.40;;
15841;SDS011;8021;48.022;11.812;2022-10-15T01:31:54;0.30;;;0.30;;
15841;SDS011;8021;48.022;11.812;2022-10-15T01:34:26;0.40;;;0.40;;
15841;SDS011;8021;48.022;11.812;2022-10-15T01:36:58;0.30;;;0.30;;
15841;SDS011;8021;48.022;11.812;2022-10-15T01:39:29;0.30;;;0.30;;
15841;SDS011;8021;48.022;11.812;2022-10-15T01:41:59;0.30;;;0.30;;
15841;SDS011;8021;48.022;11.812;2022-10-15T01:44:28;0.30;;;0.30;;
15841;SDS011;8021;48.022;11.812;2022-10-15T01:47:08;0.30;;;0.30;;
15841;SDS011;8021;48.022;11.812;2022-10-15T01:49:39;0.35;;;0.35;;
15841;SDS011;8021;48.022;11.812;2022-10-15T01:52:09;0.40;;;0.40;;
15841;SDS011;8021;48.022;11.812;2022-10-15T01:54:39;0.30;;;0.30;;
15841;SDS011;8021;48.022;11.812;2022-10-15T01:57:07;0.30;;;0.30;;
15841;SDS011;8021;48.022;11.812;2022-10-15T01:59:37;0.30;;;0.30;;
15841;SDS011;8021;48.022;11.812;2022-10-15T02:02:05;0.30;;;0.30;;
15841;SDS011;8021;48.022;11.812;2022-10-15T02:04:34;0.30;;;0.30;;
15841;SDS011;8021;48.022;11.812;2022-10-15T02:07:03;0.30;;;0.30;;
15841;SDS011;8021;48.022;11.812;2022-10-15T02:09:34;0.30;;;0.30;;
15841;SDS011;8021;48.022;11.812;2022-10-15T02:12:07;0.30;;;0.30;;
15841;SDS011;8021;48.022;11.812;2022-10-15T02:14:39;0.40;;;0.40;;
15841;SDS011;8021;48.022;11.812;2022-10-15T02:17:09;0.30;;;0.30;;
15841;SDS011;8021;48.022;11.812;2022-10-15T02:19:40;0.30;;;0.30;;
15841;SDS011;8021;48.022;11.812;2022-10-15T02:22:11;0.30;;;0.30;;
15841;SDS011;8021;48.022;11.812;2022-10-15T02:24:40;0.30;;;0.25;;
15841;SDS011;8021;48.022;11.812;2022-10-15T02:27:09;0.30;;;0.30;;
15841;SDS011;8021;48.022;11.812;2022-10-15T02:29:38;0.30;;;0.30;;
15841;SDS011;8021;48.022;11.812;2022-10-15T02:32:07;0.30;;;0.30;;
15841;SDS011;8021;48.022;11.812;2022-10-15T02:34:35;0.30;;;0.30;;
15841;SDS011;8021;48.022;11.812;2022-10-15T02:37:04;0.30;;;0.30;;
15841;SDS011;8021;48.022;11.812;2022-10-15T02:39:33;0.30;;;0.30;;
15841;SDS011;8021;48.022;11.812;2022-10-15T02:42:01;0.40;;;0.40;;
15841;SDS011;8021;48.022;11.812;2022-10-15T02:44:30;0.30;;;0.30;;
15841;SDS011;8021;48.022;11.812;2022-10-15T02:46:59;0.30;;;0.30;;
15841;SDS011;8021;48.022;11.812;2022-10-15T02:49:27;0.30;;;0.30;;
15841;SDS011;8021;48.022;11.812;2022-10-15T02:51:54;0.30;;;0.30;;
15841;SDS011;8021;48.022;11.812;2022-10-15T02:54:23;0.30;;;0.30;;
15841;SDS011;8021;48.022;11.812;2022-10-15T02:56:51;0.30;;;0.30;;
15841;SDS011;8021;48.022;11.812;2022-10-15T02:59:19;0.30;;;0.30;;
15841;SDS011;8021;48.022;11.812;2022-10-15T03:01:48;0.30;;;0.30;;
15841;SDS011;8021;48.022;11.812;2022-10-15T03:04:15;0.30;;;0.30;;
15841;SDS011;8021;48.022;11.812;2022-10-15T03:06:43;0.30;;;0.30;;
15841;SDS011;8021;48.022;11.812;2022-10-15T03:09:12;0.40;;;0.40;;
15841;SDS011;8021;48.022;11.812;2022-10-15T03:11:41;0.40;;;0.40;;
15841;SDS011;8021;48.022;11.812;2022-10-15T03:14:08;0.35;;;0.35;;
15841;SDS011;8021;48.022;11.812;2022-10-15T03:16:36;0.30;;;0.30;;
15841;SDS011;8021;48.022;11.812;2022-10-15T03:19:04;0.30;;;0.30;;
15841;SDS011;8021;48.022;11.812;2022-10-15T03:21:31;0.30;;;0.30;;
15841;SDS011;8021;48.022;11.812;2022-10-15T03:24:08;0.30;;;0.30;;
15841;SDS011;8021;48.022;11.812;2022-10-15T03:26:36;0.30;;;0.30;;
15841;SDS011;8021;48.022;11.812;2022-10-15T03:29:05;0.30;;;0.30;;
15841;SDS011;8021;48.022;11.812;2022-10-15T03:31:48;0.30;;;0.20;;
15841;SDS011;8021;48.022;11.812;2022-10-15T03:34:16;0.30;;;0.30;;
15841;SDS011;8021;48.022;11.812;2022-10-15T03:36:45;0.30;;;0.30;;
15841;SDS011;8021;48.022;11.812;2022-10-15T03:39:14;0.30;;;0.30;;
15841;SDS011;8021;48.022;11.812;2022-10-15T03:41:41;0.30;;;0.30;;
15841;SDS011;8021;48.022;11.812;2022-10-15T03:44:22;0.30;;;0.30;;
15841;SDS011;8021;48.022;11.812;2022-10-15T03:47:01;0.30;;;0.30;;
15841;SDS011;8021;48.022;11.812;2022-10-15T03:49:39;0.30;;;0.30;;
15841;SDS011;8021;48.022;11.812;2022-10-15T03:52:06;0.30;;;0.20;;
15841;SDS011;8021;48.022;11.812;2022-10-15T03:54:34;0.30;;;0.30;;
15841;SDS011;8021;48.022;11.812;2022-10-15T03:57:02;0.30;;;0.30;;
15841;SDS011;8021;48.022;11.812;2022-10-15T03:59:37;0.30;;;0.30;;
15841;SDS011;8021;48.022;11.812;2022-10-15T04:02:05;0.30;;;0.30;;
15841;SDS011;8021;48.022;11.812;2022-10-15T04:04:33;0.30;;;0.30;;
15841;SDS011;8021;48.022;11.812;2022-10-15T04:07:01;0.30;;;0.30;;
15841;SDS011;8021;48.022;11.812;2022-10-15T04:09:30;0.30;;;0.30;;
15841;SDS011;8021;48.022;11.812;2022-10-15T04:12:16;0.30;;;0.20;;
15841;SDS011;8021;48.022;11.812;2022-10-15T04:14:46;0.30;;;0.30;;
15841;SDS011;8021;48.022;11.812;2022-10-15T04:17:14;0.30;;;0.30;;
15841;SDS011;8021;48.022;11.812;2022-10-15T04:19:43;0.30;;;0.30;;
15841;SDS011;8021;48.022;11.812;2022-10-15T04:22:12;0.30;;;0.30;;
15841;SDS011;8021;48.022;11.812;2022-10-15T04:24:45;0.30;;;0.28;;
15841;SDS011;8021;48.022;11.812;2022-10-15T04:27:23;0.30;;;0.30;;
15841;SDS011;8021;48.022;11.812;2022-10-15T04:29:55;0.30;;;0.25;;
15841;SDS011;8021;48.022;11.812;2022-10-15T04:32:23;0.30;;;0.30;;
15841;SDS011;8021;48.022;11.812;2022-10-15T04:34:51;0.30;;;0.30;;
15841;SDS011;8021;48.022;11.812;2022-10-15T04:37:25;0.20;;;0.20;;
15841;SDS011;8021;48.022;11.812;2022-10-15T04:39:53;0.30;;;0.30;;
15841;SDS011;8021;48.022;11.812;2022-10-15T04:42:20;0.30;;;0.30;;
15841;SDS011;8021;48.022;11.812;2022-10-15T04:44:48;0.30;;;0.30;;
15841;SDS011;8021;48.022;11.812;2022-10-15T04:47:17;0.30;;;0.30;;
15841;SDS011;8021;48.022;11.812;2022-10-15T04:49:50;0.30;;;0.30;;
15841;SDS011;8021;48.022;11.812;2022-10-15T04:52:29;0.30;;;0.30;;
15841;SDS011;8021;48.022;11.812;2022-10-15T04:55:03;0.30;;;0.30;;
15841;SDS011;8021;48.022;11.812;2022-10-15T04:57:31;0.30;;;0.30;;
15841;SDS011;8021;48.022;11.812;2022-10-15T04:59:59;0.30;;;0.22;;
15841;SDS011;8021;48.022;11.812;2022-10-15T05:02:33;0.30;;;0.30;;
15841;SDS011;8021;48.022;11.812;2022-10-15T05:05:24;0.30;;;0.30;;
15841;SDS011;8021;48.022;11.812;2022-10-15T05:07:58;0.30;;;0.20;;
15841;SDS011;8021;48.022;11.812;2022-10-15T05:10:25;0.30;;;0.30;;
15841;SDS011;8021;48.022;11.812;2022-10-15T05:12:53;0.30;;;0.30;;
15841;SDS011;8021;48.022;11.812;2022-10-15T05:15:29;0.35;;;0.35;;
15841;SDS011;8021;48.022;11.812;2022-10-15T05:17:58;0.30;;;0.30;;
15841;SDS011;8021;48.022;11.812;2022-10-15T05:20:38;0.30;;;0.20;;
15841;SDS011;8021;48.022;11.812;2022-10-15T05:23:11;0.30;;;0.30;;
15841;SDS011;8021;48.022;11.812;2022-10-15T05:25:42;0.35;;;0.35;;
15841;SDS011;8021;48.022;11.812;2022-10-15T05:28:13;0.30;;;0.30;;
15841;SDS011;8021;48.022;11.812;2022-10-15T05:30:47;0.30;;;0.30;;
15841;SDS011;8021;48.022;11.812;2022-10-15T05:33:16;0.30;;;0.30;;
15841;SDS011;8021;48.022;11.812;2022-10-15T05:35:43;0.30;;;0.20;;
15841;SDS011;8021;48.022;11.812;2022-10-15T05:38:11;0.20;;;0.20;;
15841;SDS011;8021;48.022;11.812;2022-10-15T05:40:39;0.30;;;0.20;;
15841;SDS011;8021;48.022;11.812;2022-10-15T05:43:16;0.30;;;0.30;;
15841;SDS011;8021;48.022;11.812;2022-10-15T05:45:52;0.30;;;0.30;;
15841;SDS011;8021;48.022;11.812;2022-10-15T05:48:21;0.30;;;0.20;;
15841;SDS011;8021;48.022;11.812;2022-10-15T05:50:48;0.30;;;0.30;;
15841;SDS011;8021;48.022;11.812;2022-10-15T05:53:22;0.30;;;0.30;;
15841;SDS011;8021;48.022;11.812;2022-10-15T05:55:53;0.22;;;0.20;;
15841;SDS011;8021;48.022;11.812;2022-10-15T05:58:24;0.30;;;0.30;;
15841;SDS011;8021;48.022;11.812;2022-10-15T06:00:52;0.30;;;0.30;;
15841;SDS011;8021;48.022;11.812;2022-10-15T06:03:21;0.20;;;0.20;;
15841;SDS011;8021;48.022;11.812;2022-10-15T06:05:49;0.30;;;0.30;;
15841;SDS011;8021;48.022;11.812;2022-10-15T06:08:16;0.30;;;0.20;;
15841;SDS011;8021;48.022;11.812;2022-10-15T06:10:44;0.30;;;0.28;;
15841;SDS011;8021;48.022;11.812;2022-10-15T06:13:12;0.30;;;0.30;;
15841;SDS011;8021;48.022;11.812;2022-10-15T06:15:41;0.30;;;0.30;;
15841;SDS011;8021;48.022;11.812;2022-10-15T06:18:09;0.30;;;0.30;;
15841;SDS011;8021;48.022;11.812;2022-10-15T06:20:39;0.30;;;0.20;;
15841;SDS011;8021;48.022;11.812;2022-10-15T06:23:06;0.30;;;0.20;;
15841;SDS011;8021;48.022;11.812;2022-10-15T06:25:34;0.20;;;0.20;;
15841;SDS011;8021;48.022;11.812;2022-10-15T06:28:02;0.30;;;0.30;;
15841;SDS011;8021;48.022;11.812;2022-10-15T06:30:39;0.30;;;0.30;;
15841;SDS011;8021;48.022;11.812;2022-10-15T06:33:07;0.30;;;0.30;;
15841;SDS011;8021;48.022;11.812;2022-10-15T06:35:34;0.30;;;0.30;;
15841;SDS011;8021;48.022;11.812;2022-10-15T06:38:04;0.20;;;0.20;;
15841;SDS011;8021;48.022;11.812;2022-10-15T06:40:31;0.30;;;0.20;;
15841;SDS011;8021;48.022;11.812;2022-10-15T06:43:02;0.30;;;0.20;;
15841;SDS011;8021;48.022;11.812;2022-10-15T06:45:31;0.30;;;0.22;;
15841;SDS011;8021;48.022;11.812;2022-10-15T06:47:58;0.30;;;0.20;;
15841;SDS011;8021;48.022;11.812;2022-10-15T06:50:26;0.30;;;0.22;;
15841;SDS011;8021;48.022;11.812;2022-10-15T06:52:53;0.30;;;0.20;;
15841;SDS011;8021;48.022;11.812;2022-10-15T06:55:25;0.30;;;0.20;;
15841;SDS011;8021;48.022;11.812;2022-10-15T06:57:54;0.20;;;0.20;;
15841;SDS011;8021;48.022;11.812;2022-10-15T07:00:25;0.30;;;0.20;;
15841;SDS011;8021;48.022;11.812;2022-10-15T07:02:53;0.30;;;0.30;;
15841;SDS011;8021;48.022;11.812;2022-10-15T07:05:20;0.30;;;0.20;;
15841;SDS011;8021;48.022;11.812;2022-10-15T07:07:50;0.30;;;0.20;;
15841;SDS011;8021;48.022;11.812;2022-10-15T07:10:18;0.30;;;0.25;;
15841;SDS011;8021;48.022;11.812;2022-10-15T07:12:47;0.30;;;0.30;;
15841;SDS011;8021;48.022;11.812;2022-10-15T07:15:15;0.30;;;0.30;;
15841;SDS011;8021;48.022;11.812;2022-10-15T07:17:45;0.30;;;0.30;;
15841;SDS011;8021;48.022;11.812;2022-10-15T07:20:13;0.22;;;0.22;;
15841;SDS011;8021;48.022;11.812;2022-10-15T07:22:45;0.30;;;0.20;;
15841;SDS011;8021;48.022;11.812;2022-10-15T07:25:13;0.30;;;0.30;;
15841;SDS011;8021;48.022;11.812;2022-10-15T07:27:41;0.30;;;0.20;;
15841;SDS011;8021;48.022;11.812;2022-10-15T07:30:10;0.30;;;0.30;;
15841;SDS011;8021;48.022;11.812;2022-10-15T07:32:38;0.30;;;0.30;;
15841;SDS011;8021;48.022;11.812;2022-10-15T07:35:06;0.20;;;0.20;;
15841;SDS011;8021;48.022;11.812;2022-10-15T07:37:33;0.30;;;0.20;;
15841;SDS011;8021;48.022;11.812;2022-10-15T07:40:01;0.20;;;0.20;;
15841;SDS011;8021;48.022;11.812;2022-10-15T07:42:29;0.30;;;0.30;;
15841;SDS011;8021;48.022;11.812;2022-10-15T07:44:57;0.30;;;0.20;;
15841;SDS011;8021;48.022;11.812;2022-10-15T07:47:26;0.20;;;0.10;;
15841;SDS011;8021;48.022;11.812;2022-10-15T07:49:53;0.30;;;0.20;;
15841;SDS011;8021;48.022;11.812;2022-10-15T07:52:21;0.20;;;0.20;;
15841;SDS011;8021;48.022;11.812;2022-10-15T07:54:49;0.20;;;0.20;;
15841;SDS011;8021;48.022;11.812;2022-10-15T07:57:17;0.20;;;0.20;;
15841;SDS011;8021;48.022;11.812;2022-10-15T07:59:46;0.30;;;0.20;;
15841;SDS011;8021;48.022;11.812;2022-10-15T08:02:13;0.30;;;0.28;;
15841;SDS011;8021;48.022;11.812;2022-10-15T08:04:43;0.30;;;0.28;;
15841;SDS011;8021;48.022;11.812;2022-10-15T08:07:11;0.30;;;0.30;;
15841;SDS011;8021;48.022;11.812;2022-10-15T08:09:38;0.30;;;0.20;;
15841;SDS011;8021;48.022;11.812;2022-10-15T08:12:06;0.30;;;0.20;;
15841;SDS011;8021;48.022;11.812;2022-10-15T08:14:33;0.30;;;0.30;;
15841;SDS011;8021;48.022;11.812;2022-10-15T08:17:01;0.30;;;0.20;;
15841;SDS011;8021;48.022;11.812;2022-10-15T08:19:29;0.20;;;0.20;;
15841;SDS011;8021;48.022;11.812;2022-10-15T08:21:58;0.25;;;0.25;;
15841;SDS011;8021;48.022;11.812;2022-10-15T08:24:28;0.30;;;0.20;;
15841;SDS011;8021;48.022;11.812;2022-10-15T08:26:56;0.30;;;0.20;;
15841;SDS011;8021;48.022;11.812;2022-10-15T08:29:23;0.20;;;0.20;;
15841;SDS011;8021;48.022;11.812;2022-10-15T08:31:51;0.30;;;0.20;;
15841;SDS011;8021;48.022;11.812;2022-10-15T08:34:21;0.20;;;0.20;;
15841;SDS011;8021;48.022;11.812;2022-10-15T08:36:49;0.20;;;0.20;;
15841;SDS011;8021;48.022;11.812;2022-10-15T08:39:18;0.20;;;0.20;;
15841;SDS011;8021;48.022;11.812;2022-10-15T08:41:52;0.30;;;0.20;;
15841;SDS011;8021;48.022;11.812;2022-10-15T08:44:21;0.30;;;0.20;;
15841;SDS011;8021;48.022;11.812;2022-10-15T08:46:51;0.20;;;0.20;;
15841;SDS011;8021;48.022;11.812;2022-10-15T08:49:24;0.20;;;0.20;;
15841;SDS011;8021;48.022;11.812;2022-10-15T08:51:54;0.20;;;0.20;;
15841;SDS011;8021;48.022;11.812;2022-10-15T08:54:24;0.25;;;0.20;;
15841;SDS011;8021;48.022;11.812;2022-10-15T08:56:52;0.30;;;0.20;;
15841;SDS011;8021;48.022;11.812;2022-10-15T08:59:24;0.20;;;0.20;;
15841;SDS011;8021;48.022;11.812;2022-10-15T09:01:58;0.30;;;0.20;;
15841;SDS011;8021;48.022;11.812;2022-10-15T09:04:29;0.30;;;0.20;;
15841;SDS011;8021;48.022;11.812;2022-10-15T09:07:00;0.20;;;0.20;;
15841;SDS011;8021;48.022;11.812;2022-10-15T09:09:32;0.30;;;0.20;;
15841;SDS011;8021;48.022;11.812;2022-10-15T09:12:03;0.30;;;0.20;;
15841;SDS011;8021;48.022;11.812;2022-10-15T09:14:34;0.20;;;0.20;;
15841;SDS011;8021;48.022;11.812;2022-10-15T09:17:08;0.20;;;0.20;;
15841;SDS011;8021;48.022;11.812;2022-10-15T09:19:40;0.30;;;0.20;;
15841;SDS011;8021;48.022;11.812;2022-10-15T09:22:09;0.30;;;0.10;;
15841;SDS011;8021;48.022;11.812;2022-10-15T09:24:40;0.20;;;0.20;;
15841;SDS011;8021;48.022;11.812;2022-10-15T09:27:08;0.25;;;0.20;;
15841;SDS011;8021;48.022;11.812;2022-10-15T09:29:38;0.20;;;0.20;;
15841;SDS011;8021;48.022;11.812;2022-10-15T09:32:11;0.30;;;0.20;;
15841;SDS011;8021;48.022;11.812;2022-10-15T09:34:40;0.20;;;0.20;;
15841;SDS011;8021;48.022;11.812;2022-10-15T09:37:12;0.30;;;0.20;;
15841;SDS011;8021;48.022;11.812;2022-10-15T09:39:57;0.20;;;0.20;;
15841;SDS011;8021;48.022;11.812;2022-10-15T09:42:29;0.20;;;0.20;;
15841;SDS011;8021;48.022;11.812;2022-10-15T09:44:58;0.22;;;0.20;;
15841;SDS011;8021;48.022;11.812;2022-10-15T09:47:27;0.30;;;0.20;;
15841;SDS011;8021;48.022;11.812;2022-10-15T09:50:04;0.25;;;0.25;;
15841;SDS011;8021;48.022;11.812;2022-10-15T09:52:38;0.20;;;0.20;;
15841;SDS011;8021;48.022;11.812;2022-10-15T09:55:14;0.20;;;0.10;;
15841;SDS011;8021;48.022;11.812;2022-10-15T09:57:45;0.25;;;0.20;;
15841;SDS011;8021;48.022;11.812;2022-10-15T10:00:15;0.20;;;0.20;;
15841;SDS011;8021;48.022;11.812;2022-10-15T10:02:42;0.20;;;0.20;;
15841;SDS011;8021;48.022;11.812;2022-10-15T10:05:23;0.20;;;0.15;;
15841;SDS011;8021;48.022;11.812;2022-10-15T10:08:05;0.30;;;0.20;;
15841;SDS011;8021;48.022;11.812;2022-10-15T10:10:35;0.20;;;0.20;;
15841;SDS011;8021;48.022;11.812;2022-10-15T10:13:07;0.22;;;0.17;;
15841;SDS011;8021;48.022;11.812;2022-10-15T10:15:44;0.20;;;0.10;;
15841;SDS011;8021;48.022;11.812;2022-10-15T10:18:17;0.20;;;0.20;;
15841;SDS011;8021;48.022;11.812;2022-10-15T10:20:50;0.20;;;0.20;;
15841;SDS011;8021;48.022;11.812;2022-10-15T10:23:20;0.20;;;0.20;;
15841;SDS011;8021;48.022;11.812;2022-10-15T10:25:50;0.20;;;0.20;;
15841;SDS011;8021;48.022;11.812;2022-10-15T10:28:18;0.20;;;0.10;;
15841;SDS011;8021;48.022;11.812;2022-10-15T10:30:51;0.20;;;0.20;;
15841;SDS011;8021;48.022;11.812;2022-10-15T10:33:21;0.20;;;0.20;;
15841;SDS011;8021;48.022;11.812;2022-10-15T10:35:50;0.20;;;0.20;;
15841;SDS011;8021;48.022;11.812;2022-10-15T10:38:19;0.20;;;0.20;;
15841;SDS011;8021;48.022;11.812;2022-10-15T10:40:51;0.20;;;0.20;;
15841;SDS011;8021;48.022;11.812;2022-10-15T10:43:22;0.20;;;0.20;;
15841;SDS011;8021;48.022;11.812;2022-10-15T10:45:55;0.20;;;0.20;;
15841;SDS011;8021;48.022;11.812;2022-10-15T10:48:23;0.20;;;0.20;;
15841;SDS011;8021;48.022;11.812;2022-10-15T10:51:01;0.20;;;0.20;;
15841;SDS011;8021;48.022;11.812;2022-10-15T10:53:29;0.10;;;0.10;;
15841;SDS011;8021;48.022;11.812;2022-10-15T10:55:58;0.20;;;0.20;;
15841;SDS011;8021;48.022;11.812;2022-10-15T10:58:28;0.20;;;0.17;;
15841;SDS011;8021;48.022;11.812;2022-10-15T11:00:57;0.20;;;0.20;;
15841;SDS011;8021;48.022;11.812;2022-10-15T11:03:28;0.20;;;0.10;;
15841;SDS011;8021;48.022;11.812;2022-10-15T11:05:58;0.20;;;0.10;;
15841;SDS011;8021;48.022;11.812;2022-10-15T11:08:29;0.20;;;0.20;;
15841;SDS011;8021;48.022;11.812;2022-10-15T11:11:02;0.10;;;0.10;;
15841;SDS011;8021;48.022;11.812;2022-10-15T11:13:37;0.20;;;0.20;;
15841;SDS011;8021;48.022;11.812;2022-10-15T11:16:13;0.20;;;0.20;;
15841;SDS011;8021;48.022;11.812;2022-10-15T11:18:46;0.20;;;0.20;;
15841;SDS011;8021;48.022;11.812;2022-10-15T11:21:18;0.20;;;0.20;;
15841;SDS011;8021;48.022;11.812;2022-10-15T11:23:55;0.20;;;0.20;;
15841;SDS011;8021;48.022;11.812;2022-10-15T11:26:36;0.20;;;0.10;;
15841;SDS011;8021;48.022;11.812;2022-10-15T11:29:39;0.20;;;0.20;;
15841;SDS011;8021;48.022;11.812;2022-10-15T11:32:12;0.20;;;0.20;;
15841;SDS011;8021;48.022;11.812;2022-10-15T11:34:51;0.10;;;0.10;;
15841;SDS011;8021;48.022;11.812;2022-10-15T11:37:27;0.20;;;0.17;;
15841;SDS011;8021;48.022;11.812;2022-10-15T11:39:59;0.20;;;0.17;;
15841;SDS011;8021;48.022;11.812;2022-10-15T11:42:32;0.20;;;0.10;;
15841;SDS011;8021;48.022;11.812;2022-10-15T11:45:17;0.20;;;0.10;;
15841;SDS011;8021;48.022;11.812;2022-10-15T11:47:52;0.20;;;0.20;;
15841;SDS011;8021;48.022;11.812;2022-10-15T11:50:24;0.20;;;0.20;;
15841;SDS011;8021;48.022;11.812;2022-10-15T11:52:56;0.20;;;0.20;;
15841;SDS011;8021;48.022;11.812;2022-10-15T11:55:27;0.10;;;0.10;;
15841;SDS011;8021;48.022;11.812;2022-10-15T11:57:59;0.20;;;0.20;;
15841;SDS011;8021;48.022;11.812;2022-10-15T12:00:30;0.10;;;0.10;;
15841;SDS011;8021;48.022;11.812;2022-10-15T12:02:59;0.20;;;0.20;;
15841;SDS011;8021;48.022;11.812;2022-10-15T12:05:30;0.20;;;0.10;;
15841;SDS011;8021;48.022;11.812;2022-10-15T12:07:58;0.15;;;0.10;;
15841;SDS011;8021;48.022;11.812;2022-10-15T12:10:30;0.10;;;0.10;;
15841;SDS011;8021;48.022;11.812;2022-10-15T12:13:01;0.10;;;0.10;;
15841;SDS011;8021;48.022;11.812;2022-10-15T12:15:34;0.10;;;0.10;;
15841;SDS011;8021;48.022;11.812;2022-10-15T12:18:09;0.20;;;0.10;;
15841;SDS011;8021;48.022;11.812;2022-10-15T12:20:42;0.20;;;0.20;;
15841;SDS011;8021;48.022;11.812;2022-10-15T12:23:21;0.13;;;0.10;;
15841;SDS011;8021;48.022;11.812;2022-10-15T12:25:49;0.20;;;0.20;;
15841;SDS011;8021;48.022;11.812;2022-10-15T12:28:19;0.20;;;0.20;;
15841;SDS011;8021;48.022;11.812;2022-10-15T12:30:57;0.20;;;0.20;;
15841;SDS011;8021;48.022;11.812;2022-10-15T12:33:28;0.20;;;0.20;;
15841;SDS011;8021;48.022;11.812;2022-10-15T12:35:58;0.20;;;0.20;;
15841;SDS011;8021;48.022;11.812;2022-10-15T12:38:27;0.20;;;0.20;;
15841;SDS011;8021;48.022;11.812;2022-10-15T12:40:59;0.20;;;0.10;;
15841;SDS011;8021;48.022;11.812;2022-10-15T12:43:29;0.20;;;0.20;;
15841;SDS011;8021;48.022;11.812;2022-10-15T12:45:57;0.20;;;0.20;;
15841;SDS011;8021;48.022;11.812;2022-10-15T12:48:28;0.20;;;0.10;;
15841;SDS011;8021;48.022;11.812;2022-10-15T12:53:42;0.20;;;0.20;;
15841;SDS011;8021;48.022;11.812;2022-10-15T12:56:11;0.30;;;0.20;;
15841;SDS011;8021;48.022;11.812;2022-10-15T12:58:43;0.20;;;0.20;;
15841;SDS011;8021;48.022;11.812;2022-10-15T13:01:27;0.20;;;0.20;;
15841;SDS011;8021;48.022;11.812;2022-10-15T13:03:58;0.20;;;0.20;;
15841;SDS011;8021;48.022;11.812;2022-10-15T13:06:30;0.20;;;0.20;;
15841;SDS011;8021;48.022;11.812;2022-10-15T13:09:10;0.20;;;0.10;;
15841;SDS011;8021;48.022;11.812;2022-10-15T13:11:43;0.20;;;0.20;;
15841;SDS011;8021;48.022;11.812;2022-10-15T13:14:17;0.20;;;0.20;;
15841;SDS011;8021;48.022;11.812;2022-10-15T13:16:46;0.20;;;0.10;;
15841;SDS011;8021;48.022;11.812;2022-10-15T13:19:16;0.20;;;0.10;;
15841;SDS011;8021;48.022;11.812;2022-10-15T13:21:48;0.20;;;0.10;;
15841;SDS011;8021;48.022;11.812;2022-10-15T13:24:21;0.20;;;0.20;;
15841;SDS011;8021;48.022;11.812;2022-10-15T13:26:49;0.30;;;0.20;;
15841;SDS011;8021;48.022;11.812;2022-10-15T13:29:18;0.20;;;0.20;;
15841;SDS011;8021;48.022;11.812;2022-10-15T13:32:12;0.20;;;0.20;;
15841;SDS011;8021;48.022;11.812;2022-10-15T13:34:40;0.20;;;0.20;;
15841;SDS011;8021;48.022;11.812;2022-10-15T13:37:12;0.30;;;0.20;;
15841;SDS011;8021;48.022;11.812;2022-10-15T13:39:42;0.20;;;0.20;;
15841;SDS011;8021;48.022;11.812;2022-10-15T13:42:12;0.20;;;0.10;;
15841;SDS011;8021;48.022;11.812;2022-10-15T13:44:42;0.20;;;0.17;;
15841;SDS011;8021;48.022;11.812;2022-10-15T13:47:22;0.20;;;0.20;;
15841;SDS011;8021;48.022;11.812;2022-10-15T13:49:51;0.20;;;0.20;;
15841;SDS011;8021;48.022;11.812;2022-10-15T13:52:18;0.20;;;0.20;;
15841;SDS011;8021;48.022;11.812;2022-10-15T13:54:45;0.30;;;0.20;;
15841;SDS011;8021;48.022;11.812;2022-10-15T13:57:14;0.20;;;0.20;;
15841;SDS011;8021;48.022;11.812;2022-10-15T13:59:44;0.28;;;0.10;;
15841;SDS011;8021;48.022;11.812;2022-10-15T14:02:18;0.20;;;0.20;;
15841;SDS011;8021;48.022;11.812;2022-10-15T14:04:46;0.20;;;0.20;;
15841;SDS011;8021;48.022;11.812;2022-10-15T14:07:20;0.30;;;0.20;;
15841;SDS011;8021;48.022;11.812;2022-10-15T14:09:49;0.20;;;0.20;;
15841;SDS011;8021;48.022;11.812;2022-10-15T14:12:16;0.20;;;0.20;;
15841;SDS011;8021;48.022;11.812;2022-10-15T14:14:45;0.30;;;0.30;;
15841;SDS011;8021;48.022;11.812;2022-10-15T14:17:20;0.20;;;0.10;;
15841;SDS011;8021;48.022;11.812;2022-10-15T14:19:49;0.20;;;0.20;;
15841;SDS011;8021;48.022;11.812;2022-10-15T14:22:38;0.20;;;0.20;;
15841;SDS011;8021;48.022;11.812;2022-10-15T14:25:06;0.28;;;0.20;;
15841;SDS011;8021;48.022;11.812;2022-10-15T14:27:35;0.20;;;0.20;;
15841;SDS011;8021;48.022;11.812;2022-10-15T14:30:11;0.20;;;0.20;;
15841;SDS011;8021;48.022;11.812;2022-10-15T14:32:43;0.20;;;0.20;;
15841;SDS011;8021;48.022;11.812;2022-10-15T14:35:21;0.20;;;0.20;;
15841;SDS011;8021;48.022;11.812;2022-10-15T14:37:56;0.20;;;0.20;;
15841;SDS011;8021;48.022;11.812;2022-10-15T14:40:24;0.20;;;0.20;;
15841;SDS011;8021;48.022;11.812;2022-10-15T14:43:02;0.20;;;0.20;;
15841;SDS011;8021;48.022;11.812;2022-10-15T14:45:34;0.20;;;0.13;;
15841;SDS011;8021;48.022;11.812;2022-10-15T14:48:06;0.20;;;0.10;;
15841;SDS011;8021;48.022;11.812;2022-10-15T14:50:41;0.20;;;0.20;;
15841;SDS011;8021;48.022;11.812;2022-10-15T14:53:09;0.20;;;0.13;;
15841;SDS011;8021;48.022;11.812;2022-10-15T14:55:40;0.20;;;0.20;;
15841;SDS011;8021;48.022;11.812;2022-10-15T14:58:09;0.30;;;0.30;;
15841;SDS011;8021;48.022;11.812;2022-10-15T15:00:39;0.20;;;0.20;;
15841;SDS011;8021;48.022;11.812;2022-10-15T15:03:10;0.20;;;0.20;;
15841;SDS011;8021;48.022;11.812;2022-10-15T15:05:43;0.20;;;0.20;;
15841;SDS011;8021;48.022;11.812;2022-10-15T15:08:11;0.22;;;0.20;;
15841;SDS011;8021;48.022;11.812;2022-10-15T15:10:38;0.20;;;0.20;;
15841;SDS011;8021;48.022;11.812;2022-10-15T15:13:06;0.20;;;0.20;;